createdAt,value
2022-09-23T00:00:27.179Z,99349.38
2022-09-23T00:05:33.587Z,99344.34
2022-09-23T00:10:40.896Z,99339.84
2022-09-23T00:15:48.539Z,99344.94
2022-09-23T00:20:53.508Z,99342.84
2022-09-23T00:26:02.635Z,99335.22
2022-09-23T00:31:12.622Z,99330.81
2022-09-23T00:36:19.034Z,99329.25
2022-09-23T00:41:24.615Z,99329.19
2022-09-23T00:46:37.837Z,99322.81
2022-09-23T00:51:48.961Z,99316.03
2022-09-23T00:56:54.349Z,99310.09
2022-09-23T01:02:05.803Z,99315.88
2022-09-23T01:07:10.774Z,99314.66
2022-09-23T01:12:33.193Z,99307.97
2022-09-23T01:17:47.688Z,99302.44
2022-09-23T01:22:59.591Z,99303.31
2022-09-23T01:28:33.481Z,99299.19
2022-09-23T01:33:47.767Z,99301.78
2022-09-23T01:39:00.150Z,99289.09
2022-09-23T01:44:11.157Z,99283.41
2022-09-23T01:49:24.970Z,99269.72
2022-09-23T01:54:38.881Z,99272.91
2022-09-23T01:59:48.254Z,99274.63
2022-09-23T02:05:03.030Z,99268.09
2022-09-23T02:10:16.722Z,99271.34
2022-09-23T02:15:25.890Z,99265.25
2022-09-23T02:20:42.183Z,99265.19
2022-09-23T02:25:57.334Z,99251.44
2022-09-23T02:31:11.965Z,99249.16
2022-09-23T02:36:29.795Z,99246.56
2022-09-23T02:41:43.160Z,99246.38
2022-09-23T02:46:50.331Z,99246.50
2022-09-23T02:51:58.563Z,99236.19
2022-09-23T02:57:05.647Z,99234.22
2022-09-23T03:02:31.071Z,99234.19
2022-09-23T03:07:50.655Z,99235.28
2022-09-23T03:13:07.705Z,99221.03
2022-09-23T03:18:20.496Z,99211.50
2022-09-23T03:23:32.286Z,99215.94
2022-09-23T03:28:39.814Z,99209.06
2022-09-23T03:33:49.405Z,99181.38
2022-09-23T03:39:04.482Z,99187.22
2022-09-23T03:44:10.945Z,99190.53
2022-09-23T03:49:19.269Z,99190.94
2022-09-23T03:54:30.152Z,99192.50
2022-09-23T03:59:35.013Z,99192.47
2022-09-23T04:04:41.215Z,99185.59
2022-09-23T04:09:48.886Z,99184.03
2022-09-23T04:14:53.951Z,99176.13
2022-09-23T04:19:58.997Z,99175.09
2022-09-23T04:25:07.904Z,99179.28
2022-09-23T04:30:14.454Z,99171.34
2022-09-23T04:35:19.853Z,99172.22
2022-09-23T04:40:27.421Z,99160.84
2022-09-23T04:45:32.399Z,99166.09
2022-09-23T04:50:39.801Z,99164.00
2022-09-23T04:55:47.528Z,99155.44
2022-09-23T05:00:52.645Z,99159.16
2022-09-23T05:06:02.196Z,99164.59
2022-09-23T05:11:12.613Z,99164.25
2022-09-23T05:16:20.174Z,99156.34
2022-09-23T05:21:27.588Z,99166.56
2022-09-23T05:26:36.129Z,99169.72
2022-09-23T05:31:42.010Z,99176.66
2022-09-23T05:36:48.471Z,99161.06
2022-09-23T05:41:57.692Z,99165.09
2022-09-23T05:47:02.963Z,99151.44
2022-09-23T05:52:08.178Z,99148.63
2022-09-23T05:57:15.808Z,99154.53
2022-09-23T06:02:20.925Z,99163.16
2022-09-23T06:07:25.851Z,99158.28
2022-09-23T06:12:33.653Z,99159.97
2022-09-23T06:17:38.515Z,99151.16
2022-09-23T06:22:43.752Z,99147.16
2022-09-23T06:27:57.164Z,99157.06
2022-09-23T06:33:02.527Z,99157.47
2022-09-23T06:38:08.097Z,99156.44
2022-09-23T06:43:15.770Z,99149.91
2022-09-23T06:48:29.649Z,99153.03
2022-09-23T06:53:39.730Z,99163.53
2022-09-23T06:58:47.349Z,99151.63
2022-09-23T07:03:52.619Z,99156.31
2022-09-23T07:08:57.825Z,99156.91
2022-09-23T07:14:05.953Z,99155.66
2022-09-23T07:19:10.909Z,99149.63
2022-09-23T07:24:15.862Z,99147.22
2022-09-23T07:29:23.579Z,99131.03
2022-09-23T07:34:29.040Z,99146.97
2022-09-23T07:39:36.816Z,99142.22
2022-09-23T07:44:47.916Z,99135.41
2022-09-23T07:49:54.318Z,99141.81
2022-09-23T07:54:59.195Z,99142.59
2022-09-23T08:00:08.276Z,99153.34
2022-09-23T08:05:18.871Z,99152.94
2022-09-23T08:10:25.209Z,99153.19
2022-09-23T08:15:34.482Z,99152.78
2022-09-23T08:20:48.680Z,99154.44
2022-09-23T08:26:00.616Z,99137.34
2022-09-23T08:31:09.265Z,99154.19
2022-09-23T08:36:18.157Z,99142.97
2022-09-23T08:41:28.673Z,99140.88
2022-09-23T08:46:40.486Z,99145.97
2022-09-23T08:51:49.301Z,99135.28
2022-09-23T08:56:55.847Z,99126.09
2022-09-23T09:02:08.562Z,99115.47
2022-09-23T09:07:35.639Z,99123.25
2022-09-23T09:12:45.088Z,99126.25
2022-09-23T09:18:02.995Z,99112.91
2022-09-23T09:23:23.573Z,99123.97
2022-09-23T09:28:36.082Z,99095.72
2022-09-23T09:33:51.404Z,99098.16
2022-09-23T09:38:58.790Z,99107.69
2022-09-23T09:44:09.625Z,99101.19
2022-09-23T09:49:28.659Z,99085.63
2022-09-23T09:54:35.104Z,99097.38
2022-09-23T09:59:44.469Z,99076.34
2022-09-23T10:04:59.973Z,99078.44
2022-09-23T10:10:39.519Z,99068.06
2022-09-23T10:15:48.826Z,99063.53
2022-09-23T10:21:13.612Z,99067.94
2022-09-23T10:26:19.897Z,99061.44
2022-09-23T10:31:28.097Z,99062.81
2022-09-23T10:36:36.186Z,99058.47
2022-09-23T10:42:02.462Z,99059.44
2022-09-23T10:47:17.427Z,99057.31
2022-09-23T10:52:55.235Z,99054.53
2022-09-23T10:58:21.027Z,99049.28
2022-09-23T11:04:02.821Z,99030.63
2022-09-23T11:09:29.459Z,99018.25
2022-09-23T11:14:54.025Z,99010.78
2022-09-23T11:20:22.088Z,99009.34
2022-09-23T11:25:50.886Z,99007.06
2022-09-23T11:31:04.401Z,99003.81
2022-09-23T11:36:14.810Z,99007.84
2022-09-23T11:41:28.132Z,98994.44
2022-09-23T11:46:41.100Z,98987.91
2022-09-23T11:51:55.961Z,99000.72
2022-09-23T11:57:15.958Z,98995.28
2022-09-23T12:02:30.890Z,98972.56
2022-09-23T12:07:46.506Z,98983.69
2022-09-23T12:13:02.196Z,98979.53
2022-09-23T12:18:25.883Z,98971.16
2022-09-23T12:23:51.807Z,98974.06
2022-09-23T12:29:05.191Z,98973.94
2022-09-23T12:34:25.100Z,98966.22
2022-09-23T12:39:34.624Z,98951.06
2022-09-23T12:44:44.501Z,98953.19
2022-09-23T12:49:50.897Z,98954.19
2022-09-23T12:55:00.091Z,98941.50
2022-09-23T13:00:34.107Z,98930.75
2022-09-23T13:06:00.994Z,98941.38
2022-09-23T13:11:10.060Z,98918.69
2022-09-23T13:16:28.254Z,98920.72
2022-09-23T13:22:08.108Z,98905.81
2022-09-23T13:27:24.864Z,98912.56
2022-09-23T13:32:36.114Z,98900.28
2022-09-23T13:37:46.293Z,98898.34
2022-09-23T13:42:58.638Z,98899.47
2022-09-23T13:48:11.451Z,98894.22
2022-09-23T13:53:23.370Z,98878.03
2022-09-23T13:58:32.522Z,98877.06
2022-09-23T14:03:42.360Z,98871.03
2022-09-23T14:08:50.032Z,98889.47
2022-09-23T14:13:56.314Z,98872.88
2022-09-23T14:19:04.971Z,98871.50
2022-09-23T14:24:18.973Z,98856.59
2022-09-23T14:29:28.309Z,98854.59
2022-09-23T14:34:52.265Z,98841.69
2022-09-23T14:39:58.011Z,98842.94
2022-09-23T14:45:03.276Z,98844.81
2022-09-23T14:50:31.095Z,98830.59
2022-09-23T14:55:38.113Z,98832.84
2022-09-23T15:00:47.716Z,98823.41
2022-09-23T15:06:03.117Z,98814.19
2022-09-23T15:11:11.333Z,98818.69
2022-09-23T15:16:19.981Z,98822.72
2022-09-23T15:21:35.306Z,98814.84
2022-09-23T15:26:48.544Z,98815.22
2022-09-23T15:31:55.401Z,98821.50
2022-09-23T15:37:03.642Z,98829.47
2022-09-23T15:42:10.456Z,98819.69
2022-09-23T15:47:22.534Z,98807.09
2022-09-23T15:52:30.312Z,98816.16
2022-09-23T15:57:35.134Z,98800.59
2022-09-23T16:02:40.300Z,98806.97
2022-09-23T16:07:48.631Z,98803.41
2022-09-23T16:12:56.606Z,98802.38
2022-09-23T16:18:01.981Z,98787.72
2022-09-23T16:23:16.072Z,98786.91
2022-09-23T16:28:20.986Z,98790.47
2022-09-23T16:33:27.639Z,98789.94
2022-09-23T16:38:35.476Z,98793.50
2022-09-23T16:43:42.559Z,98788.13
2022-09-23T16:48:52.392Z,98791.88
2022-09-23T16:54:02.070Z,98777.28
2022-09-23T16:59:07.220Z,98791.66
2022-09-23T17:04:13.311Z,98792.06
2022-09-23T17:09:21.786Z,98782.81
2022-09-23T17:14:26.800Z,98781.75
2022-09-23T17:19:31.969Z,98783.31
2022-09-23T17:24:43.944Z,98783.22
2022-09-23T17:29:48.793Z,98788.03
2022-09-23T17:34:54.136Z,98789.78
2022-09-23T17:40:02.748Z,98791.69
2022-09-23T17:45:08.695Z,98785.72
2022-09-23T17:50:15.137Z,98783.78
2022-09-23T17:55:22.785Z,98789.78
2022-09-23T18:00:28.167Z,98776.41
2022-09-23T18:05:33.209Z,98784.38
2022-09-23T18:10:40.852Z,98785.19
2022-09-23T18:15:46.113Z,98792.72
2022-09-23T18:20:51.019Z,98788.78
2022-09-23T18:25:58.978Z,98784.31
2022-09-23T18:31:03.819Z,98774.63
2022-09-23T18:36:12.064Z,98784.81
2022-09-23T18:41:20.403Z,98779.03
2022-09-23T18:46:30.195Z,98776.72
2022-09-23T18:51:38.295Z,98777.69
2022-09-23T18:56:47.015Z,98774.03
2022-09-23T19:01:55.123Z,98783.66
2022-09-23T19:07:00.853Z,98780.97
2022-09-23T19:12:08.572Z,98786.59
2022-09-23T19:17:14.082Z,98785.47
2022-09-23T19:22:19.569Z,98779.94
2022-09-23T19:27:27.163Z,98785.69
2022-09-23T19:32:33.454Z,98781.28
2022-09-23T19:37:38.598Z,98788.47
2022-09-23T19:42:46.488Z,98790.22
2022-09-23T19:47:56.538Z,98783.06
2022-09-23T19:53:04.826Z,98779.66
2022-09-23T19:58:14.657Z,98787.69
2022-09-23T20:03:20.708Z,98784.84
2022-09-23T20:08:27.112Z,98781.91
2022-09-23T20:13:34.804Z,98767.41
2022-09-23T20:18:39.930Z,98768.84
2022-09-23T20:23:45.376Z,98777.19
2022-09-23T20:28:53.310Z,98760.84
2022-09-23T20:34:00.220Z,98761.03
2022-09-23T20:39:08.113Z,98755.31
2022-09-23T20:44:16.117Z,98755.16
2022-09-23T20:49:21.401Z,98758.47
2022-09-23T20:54:26.467Z,98750.81
2022-09-23T20:59:34.189Z,98750.03
2022-09-23T21:04:39.119Z,98752.50
2022-09-23T21:09:44.041Z,98747.28
2022-09-23T21:14:51.776Z,98743.94
2022-09-23T21:19:56.726Z,98746.28
2022-09-23T21:25:30.134Z,98735.53
2022-09-23T21:30:29.351Z,98734.84
2022-09-23T21:35:34.394Z,98736.78
2022-09-23T21:40:51.672Z,98736.91
2022-09-23T21:46:04.502Z,98735.13
2022-09-23T21:51:11.932Z,98718.91
2022-09-23T21:56:21.007Z,98718.91
2022-09-23T22:01:30.935Z,98727.44
2022-09-23T22:06:37.600Z,98723.63
2022-09-23T22:11:56.411Z,98717.94
2022-09-23T22:17:06.631Z,98717.13
2022-09-23T22:22:15.511Z,98711.72
2022-09-23T22:27:22.371Z,98721.13
2022-09-23T22:32:46.414Z,98708.06
2022-09-23T22:37:51.174Z,98697.66
2022-09-23T22:42:56.977Z,98695.56
2022-09-23T22:48:07.479Z,98698.34
2022-09-23T22:53:12.875Z,98700.00
2022-09-23T22:58:31.773Z,98688.41
2022-09-23T23:03:40.578Z,98694.81
2022-09-23T23:08:45.453Z,98684.53
2022-09-23T23:13:50.363Z,98683.31
2022-09-23T23:18:57.960Z,98680.94
2022-09-23T23:24:04.118Z,98678.47
2022-09-23T23:29:08.918Z,98674.81
2022-09-23T23:34:19.147Z,98673.75
2022-09-23T23:39:24.710Z,98658.06
2022-09-23T23:44:31.207Z,98672.34
2022-09-23T23:49:38.887Z,98670.59
2022-09-23T23:54:44.264Z,98658.81
2022-09-23T23:59:49.176Z,98671.44
